Historyczne dane pomiarowe

Dodano dane terminowe – wersja testowa.

Dane z okresu 1951-2019

Wersja bazy: 1.34 [2019-03-16, lista zmian], aktualizacja planowana na 2019-04-15

Dane meteo z obszaru Polski uzyskane na podstawie danych udostępnionych przez Instytut Meteorologii i Gospodarki Wodnej – Państwowy Instytut Badawczy.

 

Wybierz Datę:    

       

TemperaturaWilgotnośćWiatrCiśnienieOpadyŚniegCzas trwania zjawisk
 Stacja t tx tn tng RH VA  wxwx mslp ppp RRR   cm mm wxwxwxwxwxwxwx
1994-08-14 13.1 15.5 10.4 8.6-------- 5.9--- 0.0 8.3-------
1994-08-13 16.3 19.5 13.4 13.1-------- 4.2--- 0.0 0.9-------
1994-08-12 19.0 25.1 11.4 8.6-------- 0.0--- 0.0 7.8-------
1994-08-11 20.4 26.5 14.5 11.4-------- 0.0--- 0.0 7.1-------
1994-08-10 18.3 27.3 9.4 5.2-------- 0.0--- 0.0 8.0-------
1994-08-09 20.0 27.2 12.2 9.5-------- 0.0--- 0.0 7.3-------
1994-08-08 19.6 26.3 12.6 10.1-------- 0.0--- 0.0 12.2-------
1994-08-07 20.1 25.9 16.0 11.5-------- 0.0--- 0.0 13.0-------
1994-08-06 23.9 29.5 16.4 12.5-------- 0.0--- 0.0 12.0-------
1994-08-05 23.5 31.9 12.8 9.5-------- 0.0--- 0.0 12.2-------
1994-08-04 21.2 29.3 13.4 9.9-------- 0.0--- 0.0 13.0-------
1994-08-03 22.0 27.1 19.6 18.8-------- 0.0--- 0.0 7.8-------
1994-08-02 24.4 31.5 17.9 15.2-------- 0.0--- 0.0 9.9-------
1994-08-01 28.7 36.0 21.0 16.6-------- 0.0--- 0.0 11.1-------
1994-07-31 27.4 36.5 18.1 14.0-------- 0.0--- 0.0 9.3-------
1994-07-30 26.4 36.1 17.1 14.1-------- 0.0--- 0.0 10.3-------
1994-07-29 27.4 35.8 18.1 15.0-------- 0.0--- 0.0 9.5-------
1994-07-28 25.4 34.1 16.2 13.1-------- 0.0--- 0.0 12.9-------
1994-07-27 25.8 34.6 15.3 12.4-------- 0.0--- 0.0 11.1-------
1994-07-26 26.1 34.4 13.9 10.3-------- 0.0--- 0.0 13.1-------
1994-07-25 25.3 32.9 13.7 6.0-------- 0.0--- 0.0 14.0-------
1994-07-24 23.0 31.9 11.8 9.5-------- 0.0--- 0.0 14.0-------
1994-07-23 21.8 29.5 12.0 9.4-------- 0.0--- 0.0 11.8-------
1994-07-22 20.9 29.3 9.3 5.2-------- 0.0--- 0.0 12.9-------
1994-07-21 19.7 28.9 8.8 4.5-------- 0.0--- 0.0 13.5-------
1994-07-20 18.2 26.2 6.5 2.3-------- 0.0--- 0.0 14.0-------
1994-07-19 17.8 23.7 9.1 4.1-------- 0.0--- 0.0 12.4-------
1994-07-18 16.4 24.0 7.8 3.5-------- 0.0--- 0.0 8.6-------
1994-07-17 18.3 23.0 13.9 10.5-------- 0.0--- 0.0 2.5-------
1994-07-16 21.0 26.1 16.7 15.1-------- 0.0--- 0.0 8.8-------
1994-07-15 24.1 32.7 16.9 13.5-------- 0.0--- 0.0 9.6-------
1994-07-14 25.4 33.2 15.4 12.0-------- 0.0--- 0.0 12.2-------
1994-07-13 24.5 32.2 14.7 11.0-------- 0.0--- 0.0 13.7-------
1994-07-12 22.7 30.6 12.4 8.8-------- 0.0--- 0.0 14.3-------
1994-07-11 20.6 29.5 10.4 6.2-------- 0.0--- 0.0 14.1-------
1994-07-10 19.2 26.7 13.8 13.4-------- 0.0--- 0.0 12.6-------
1994-07-09 17.3 24.3 13.2 12.6-------- 0.0--- 0.0 8.7-------
1994-07-08 15.7 22.7 11.8 9.1-------- 2.7--- 0.0 0.0-------
1994-07-07 17.5 25.5 7.0 1.9-------- 0.0--- 0.0 11.2-------
1994-07-06 17.6 23.2 11.4 9.0-------- 0.0--- 0.0 13.8-------
1994-07-05 17.9 24.5 9.2 5.7-------- 0.0--- 0.0 10.1-------
1994-07-04 20.2 27.4 10.3 5.7-------- 0.0--- 0.0 13.4-------
1994-07-03 19.2 26.3 8.6 4.5-------- 0.0--- 0.0 13.8-------
1994-07-02 17.1 24.4 7.3 2.4-------- 0.0--- 0.0 13.8-------
1994-07-01 15.6 19.8 10.8 9.3-------- 0.0--- 0.0 12.1-------
1994-06-30 17.5 28.0 15.1 14.5-------- 0.0--- 0.0 11.7-------
1994-06-29 23.3 32.2 14.5 11.4-------- 5.7--- 0.0 10.3-------
1994-06-28 20.2 27.8 10.4 7.6-------- 0.0--- 0.0 13.0-------
1994-06-27 20.4 25.2 15.1 12.0-------- 0.0--- 0.0 7.6-------
1994-06-26 20.6 30.8 9.5 4.5-------- 0.0--- 0.0 10.7-------
1994-06-25 14.9 23.8 2.5 -1.0-------- 0.0--- 0.0 13.7-------
1994-06-24 12.8 16.9 8.7 6.6-------- 0.0--- 0.0 12.8-------
1994-06-23 13.2 17.8 10.3 8.5-------- 1.2--- 0.0 12.3-------
1994-06-22 17.8 20.2 14.4 13.7-------- 0.0--- 0.0 3.2-------
1994-06-21 15.1 21.7 7.2 2.7-------- 1.3--- 0.0 10.2-------
1994-06-20 13.6 16.5 10.4 8.9-------- 0.0--- 0.0 13.6-------
1994-06-19 12.8 16.7 10.3 9.4-------- 1.2--- 0.0 0.0-------
1994-06-18 11.5 16.0 5.9 2.5-------- 10.2--- 0.0 2.0-------
1994-06-17 9.0 14.3 6.5 3.5-------- 0.7--- 0.0 9.3-------
1994-06-16 11.0 13.8 9.0 8.0-------- 1.1--- 0.0 8.0-------
329.7 ms

 

Źródłem pochodzenia danych jest Instytut Meteorologii i Gospodarki Wodnej – Państwowy Instytut Badawczy. Dane Instytutu Meteorologii i Gospodarki Wodnej – Państwowego Instytutu Badawczego zostały przetworzone.

Dane źródłowe można odnaleźć na stronie https://dane.imgw.pl